createdAt,value
2022-08-04T00:00:27.632Z,23.45
2022-08-04T00:03:20.791Z,23.35
2022-08-04T00:06:20.783Z,23.32
2022-08-04T00:09:14.999Z,23.46
2022-08-04T00:12:08.252Z,23.30
2022-08-04T00:15:01.020Z,23.34
2022-08-04T00:17:55.604Z,23.32
2022-08-04T00:20:44.477Z,23.22
2022-08-04T00:24:11.820Z,23.24
2022-08-04T00:26:45.083Z,23.20
2022-08-04T00:29:34.409Z,23.22
2022-08-04T00:32:29.907Z,23.17
2022-08-04T00:35:23.175Z,23.11
2022-08-04T00:38:12.330Z,23.03
2022-08-04T00:41:10.231Z,22.93
2022-08-04T00:44:14.364Z,22.83
2022-08-04T00:47:30.342Z,22.86
2022-08-04T00:50:27.983Z,22.78
2022-08-04T00:53:24.661Z,22.76
2022-08-04T00:56:28.108Z,22.78
2022-08-04T00:59:37.416Z,22.69
2022-08-04T01:02:33.586Z,22.69
2022-08-04T01:05:37.495Z,22.63
2022-08-04T01:08:46.887Z,22.57
2022-08-04T01:11:56.442Z,22.51
2022-08-04T01:15:00.154Z,22.45
2022-08-04T01:18:00.378Z,22.44
2022-08-04T01:21:06.328Z,22.39
2022-08-04T01:24:20.742Z,22.28
2022-08-04T01:27:21.343Z,22.29
2022-08-04T01:30:13.136Z,22.28
2022-08-04T01:33:04.818Z,22.25
2022-08-04T01:35:57.256Z,22.25
2022-08-04T01:38:46.190Z,22.21
2022-08-04T01:41:34.691Z,22.04
2022-08-04T01:44:25.796Z,21.94
2022-08-04T01:47:18.288Z,22.00
2022-08-04T01:50:09.285Z,22.04
2022-08-04T01:52:57.804Z,21.99
2022-08-04T01:55:54.296Z,21.96
2022-08-04T01:58:44.108Z,21.85
2022-08-04T02:01:37.915Z,21.91
2022-08-04T02:04:27.828Z,21.91
2022-08-04T02:07:29.162Z,21.89
2022-08-04T02:10:28.317Z,21.95
2022-08-04T02:13:25.245Z,21.97
2022-08-04T02:16:22.882Z,21.92
2022-08-04T02:19:24.538Z,21.82
2022-08-04T02:22:23.126Z,21.72
2022-08-04T02:25:13.131Z,21.69
2022-08-04T02:28:17.299Z,21.66
2022-08-04T02:31:20.169Z,21.72
2022-08-04T02:34:13.337Z,21.69
2022-08-04T02:37:01.775Z,21.69
2022-08-04T02:39:55.143Z,21.63
2022-08-04T02:42:44.490Z,21.61
2022-08-04T02:45:37.582Z,21.65
2022-08-04T02:48:31.008Z,21.62
2022-08-04T02:51:24.754Z,21.48
2022-08-04T02:54:16.047Z,21.53
2022-08-04T02:57:24.600Z,21.48
2022-08-04T03:00:15.271Z,21.42
2022-08-04T03:03:17.248Z,21.42
2022-08-04T03:06:34.949Z,21.40
2022-08-04T03:09:39.488Z,21.40
2022-08-04T03:12:59.134Z,21.41
2022-08-04T03:16:02.676Z,21.40
2022-08-04T03:19:21.090Z,21.36
2022-08-04T03:22:28.942Z,21.35
2022-08-04T03:25:56.549Z,21.34
2022-08-04T03:29:26.069Z,21.27
2022-08-04T03:33:13.292Z,21.27
2022-08-04T03:36:48.403Z,21.23
2022-08-04T03:40:16.048Z,21.26
2022-08-04T03:43:57.887Z,21.26
2022-08-04T03:47:21.107Z,21.25
2022-08-04T03:50:44.691Z,21.25
2022-08-04T03:53:40.825Z,21.34
2022-08-04T03:57:00.986Z,21.35
2022-08-04T04:00:06.705Z,21.44
2022-08-04T04:03:41.647Z,21.43
2022-08-04T04:06:54.729Z,21.59
2022-08-04T04:10:09.373Z,21.52
2022-08-04T04:13:36.064Z,21.61
2022-08-04T04:16:39.534Z,21.77
2022-08-04T04:19:58.633Z,21.83
2022-08-04T04:23:02.327Z,21.94
2022-08-04T04:26:05.072Z,21.94
2022-08-04T04:29:08.071Z,21.78
2022-08-04T04:32:06.313Z,21.79
2022-08-04T04:35:12.284Z,21.89
2022-08-04T04:38:31.969Z,21.88
2022-08-04T04:41:38.155Z,21.93
2022-08-04T04:44:52.425Z,21.94
2022-08-04T04:48:08.428Z,21.99
2022-08-04T04:51:10.124Z,22.08
2022-08-04T04:54:07.644Z,22.12
2022-08-04T04:57:06.586Z,22.20
2022-08-04T04:59:59.637Z,22.13
2022-08-04T05:03:26.271Z,22.12
2022-08-04T05:06:38.700Z,21.99
2022-08-04T05:09:42.961Z,22.33
2022-08-04T05:14:35.309Z,22.41
2022-08-04T05:16:21.553Z,22.60
2022-08-04T05:19:21.737Z,22.72
2022-08-04T05:22:14.725Z,22.79
2022-08-04T05:25:09.942Z,22.84
2022-08-04T05:28:04.417Z,22.97
2022-08-04T05:30:58.877Z,23.10
2022-08-04T05:33:53.187Z,23.26
2022-08-04T05:36:45.339Z,23.42
2022-08-04T05:39:38.385Z,23.53
2022-08-04T05:42:29.207Z,23.59
2022-08-04T05:45:19.784Z,23.75
2022-08-04T05:48:10.429Z,23.90
2022-08-04T05:51:01.189Z,23.84
2022-08-04T05:53:50.941Z,23.82
2022-08-04T05:56:40.047Z,24.00
2022-08-04T05:59:31.514Z,24.04
2022-08-04T06:02:21.653Z,24.33
2022-08-04T06:05:14.763Z,24.48
2022-08-04T06:08:07.799Z,24.58
2022-08-04T06:11:06.095Z,24.79
2022-08-04T06:13:58.007Z,24.82
2022-08-04T06:16:51.344Z,24.94
2022-08-04T06:20:03.138Z,25.09
2022-08-04T06:22:55.045Z,25.12
2022-08-04T06:25:47.870Z,25.32
2022-08-04T06:28:37.268Z,25.41
2022-08-04T06:32:31.378Z,25.59
2022-08-04T06:34:56.315Z,25.70
2022-08-04T06:37:46.597Z,25.72
2022-08-04T06:40:36.174Z,25.84
2022-08-04T06:43:25.157Z,26.06
2022-08-04T06:46:17.559Z,26.08
2022-08-04T06:49:06.614Z,26.26
2022-08-04T06:51:59.414Z,26.42
2022-08-04T06:54:49.071Z,26.44
2022-08-04T06:57:38.488Z,26.60
2022-08-04T07:00:27.648Z,26.64
2022-08-04T07:03:19.394Z,26.82
2022-08-04T07:06:14.294Z,26.97
2022-08-04T07:09:06.414Z,26.99
2022-08-04T07:11:56.708Z,27.15
2022-08-04T07:14:45.564Z,27.27
2022-08-04T07:17:36.255Z,27.41
2022-08-04T07:20:34.326Z,27.64
2022-08-04T07:23:26.367Z,27.66
2022-08-04T07:26:19.228Z,27.69
2022-08-04T07:29:07.874Z,27.81
2022-08-04T07:31:57.955Z,27.86
2022-08-04T07:34:49.930Z,28.17
2022-08-04T07:37:40.104Z,28.03
2022-08-04T07:40:28.752Z,27.82
2022-08-04T07:43:19.242Z,28.02
2022-08-04T07:46:08.077Z,28.19
2022-08-04T07:48:56.602Z,28.13
2022-08-04T07:51:45.406Z,28.30
2022-08-04T07:54:35.061Z,28.52
2022-08-04T07:57:41.398Z,28.71
2022-08-04T08:00:32.554Z,28.72
2022-08-04T08:03:21.644Z,28.75
2022-08-04T08:06:17.497Z,28.84
2022-08-04T08:09:21.426Z,28.92
2022-08-04T08:12:37.747Z,28.83
2022-08-04T08:15:21.009Z,28.85
2022-08-04T08:18:10.890Z,29.19
2022-08-04T08:21:00.021Z,29.27
2022-08-04T08:23:48.681Z,29.36
2022-08-04T08:26:36.983Z,29.16
2022-08-04T08:29:27.037Z,29.09
2022-08-04T08:32:16.541Z,29.02
2022-08-04T08:35:07.803Z,29.22
2022-08-04T08:38:03.950Z,29.06
2022-08-04T08:40:59.974Z,29.24
2022-08-04T08:44:07.689Z,29.44
2022-08-04T08:47:08.727Z,29.39
2022-08-04T08:50:19.428Z,29.33
2022-08-04T08:53:24.424Z,29.41
2022-08-04T08:56:31.157Z,29.39
2022-08-04T08:59:40.653Z,29.61
2022-08-04T09:03:04.733Z,29.38
2022-08-04T09:06:24.075Z,29.80
2022-08-04T09:09:32.310Z,30.14
2022-08-04T09:12:29.185Z,30.56
2022-08-04T09:15:24.280Z,30.49
2022-08-04T09:18:19.783Z,30.48
2022-08-04T09:21:17.805Z,30.02
2022-08-04T09:24:35.347Z,30.22
2022-08-04T09:27:25.843Z,30.47
2022-08-04T09:30:19.395Z,30.68
2022-08-04T09:33:17.436Z,30.40
2022-08-04T09:36:25.589Z,30.37
2022-08-04T09:39:23.299Z,30.48
2022-08-04T09:42:20.035Z,30.51
2022-08-04T09:45:26.690Z,30.57
2022-08-04T09:48:43.995Z,30.96
2022-08-04T09:51:58.841Z,31.17
2022-08-04T09:54:54.177Z,30.89
2022-08-04T09:58:02.913Z,31.21
2022-08-04T10:00:54.993Z,30.79
2022-08-04T10:03:48.736Z,31.25
2022-08-04T10:07:20.501Z,31.24
2022-08-04T10:10:20.355Z,31.32
2022-08-04T10:13:22.437Z,31.36
2022-08-04T10:16:29.363Z,31.42
2022-08-04T10:19:27.525Z,31.77
2022-08-04T10:22:28.820Z,31.46
2022-08-04T10:26:02.561Z,31.58
2022-08-04T10:28:45.694Z,31.68
2022-08-04T10:31:36.682Z,31.71
2022-08-04T10:34:28.971Z,31.72
2022-08-04T10:38:00.249Z,31.70
2022-08-04T10:40:45.575Z,31.94
2022-08-04T10:43:44.156Z,31.39
2022-08-04T10:46:36.372Z,31.91
2022-08-04T10:49:30.347Z,31.92
2022-08-04T10:52:30.346Z,31.98
2022-08-04T10:55:21.150Z,31.30
2022-08-04T10:58:20.631Z,31.79
2022-08-04T11:01:59.633Z,31.73
2022-08-04T11:04:42.647Z,31.77
2022-08-04T11:07:36.313Z,31.78
2022-08-04T11:10:29.824Z,31.68
2022-08-04T11:13:29.566Z,31.60
2022-08-04T11:16:23.730Z,31.79
2022-08-04T11:19:45.219Z,31.90
2022-08-04T11:22:40.498Z,31.77
2022-08-04T11:25:35.650Z,31.93
2022-08-04T11:28:38.559Z,32.03
2022-08-04T11:31:30.483Z,32.30
2022-08-04T11:34:23.267Z,32.28
2022-08-04T11:37:18.592Z,32.38
2022-08-04T11:40:13.955Z,32.31
2022-08-04T11:43:05.797Z,32.11
2022-08-04T11:45:57.964Z,32.51
2022-08-04T11:48:54.176Z,32.74
2022-08-04T11:51:45.717Z,32.50
2022-08-04T11:54:35.948Z,32.82
2022-08-04T11:57:35.661Z,33.08
2022-08-04T12:00:27.908Z,33.57
2022-08-04T12:03:37.579Z,34.19
2022-08-04T12:06:33.666Z,34.76
2022-08-04T12:09:33.392Z,35.29
2022-08-04T12:12:29.616Z,36.08
2022-08-04T12:15:26.688Z,36.56
2022-08-04T12:18:24.690Z,36.47
2022-08-04T12:21:29.322Z,36.62
2022-08-04T12:24:22.656Z,37.24
2022-08-04T12:27:17.012Z,37.21
2022-08-04T12:31:00.061Z,37.18
2022-08-04T12:33:24.481Z,38.09
2022-08-04T12:36:39.260Z,38.36
2022-08-04T12:39:29.204Z,39.11
2022-08-04T12:42:23.630Z,39.37
2022-08-04T12:45:15.466Z,39.88
2022-08-04T12:48:07.483Z,39.46
2022-08-04T12:50:58.478Z,39.71
2022-08-04T12:53:50.936Z,39.69
2022-08-04T12:56:41.955Z,39.65
2022-08-04T12:59:30.508Z,39.29
2022-08-04T13:02:27.330Z,39.71
2022-08-04T13:05:17.417Z,40.20
2022-08-04T13:08:07.605Z,39.12
2022-08-04T13:11:00.014Z,39.18
2022-08-04T13:14:05.368Z,39.33
2022-08-04T13:17:01.969Z,39.36
2022-08-04T13:19:53.396Z,39.28
2022-08-04T13:22:46.368Z,39.50
2022-08-04T13:26:44.666Z,38.86
2022-08-04T13:28:50.846Z,39.27
2022-08-04T13:31:45.157Z,39.25
2022-08-04T13:34:49.514Z,39.13
2022-08-04T13:37:44.117Z,39.60
2022-08-04T13:40:33.470Z,39.44
2022-08-04T13:44:15.333Z,39.94
2022-08-04T13:46:39.129Z,40.16
2022-08-04T13:49:42.889Z,40.42
2022-08-04T13:52:36.100Z,40.24
2022-08-04T13:55:30.137Z,40.02
2022-08-04T13:58:24.217Z,40.14
2022-08-04T14:01:17.610Z,40.12
2022-08-04T14:04:13.732Z,40.49
2022-08-04T14:07:18.113Z,40.87
2022-08-04T14:10:14.341Z,40.22
2022-08-04T14:13:06.084Z,40.24
2022-08-04T14:16:03.721Z,39.87
2022-08-04T14:19:00.653Z,39.90
2022-08-04T14:21:49.877Z,40.31
2022-08-04T14:24:38.417Z,39.45
2022-08-04T14:27:29.260Z,39.76
2022-08-04T14:30:27.723Z,39.57
2022-08-04T14:34:01.662Z,39.21
2022-08-04T14:36:25.424Z,39.28
2022-08-04T14:39:13.918Z,39.00
2022-08-04T14:42:02.349Z,39.50
2022-08-04T14:44:55.594Z,39.56
2022-08-04T14:47:52.667Z,39.29
2022-08-04T14:50:45.042Z,39.73
2022-08-04T14:53:33.732Z,38.71
2022-08-04T14:56:44.917Z,38.78
2022-08-04T14:59:59.225Z,39.11
2022-08-04T15:02:53.308Z,39.17
2022-08-04T15:05:59.808Z,38.93
2022-08-04T15:08:54.729Z,39.35
2022-08-04T15:11:43.743Z,39.71
2022-08-04T15:14:37.482Z,39.10
2022-08-04T15:17:29.989Z,39.33
2022-08-04T15:20:20.442Z,39.68
2022-08-04T15:23:10.910Z,39.52
2022-08-04T15:26:03.045Z,38.91
2022-08-04T15:28:55.919Z,39.06
2022-08-04T15:32:05.739Z,39.69
2022-08-04T15:35:02.567Z,39.34
2022-08-04T15:38:01.222Z,39.36
2022-08-04T15:40:53.871Z,39.43
2022-08-04T15:43:55.319Z,38.76
2022-08-04T15:47:12.826Z,38.85
2022-08-04T15:50:07.391Z,39.10
2022-08-04T15:53:10.550Z,39.24
2022-08-04T15:56:01.721Z,39.05
2022-08-04T15:58:53.204Z,38.96
2022-08-04T16:01:41.814Z,38.96
2022-08-04T16:04:50.235Z,38.56
2022-08-04T16:08:00.237Z,38.75
2022-08-04T16:10:51.123Z,38.64
2022-08-04T16:13:47.683Z,38.83
2022-08-04T16:16:49.267Z,38.57
2022-08-04T16:19:55.779Z,38.60
2022-08-04T16:22:51.874Z,38.81
2022-08-04T16:25:45.081Z,39.14
2022-08-04T16:28:41.878Z,38.96
2022-08-04T16:31:34.301Z,39.24
2022-08-04T16:34:48.300Z,38.12
2022-08-04T16:37:34.511Z,38.35
2022-08-04T16:40:37.080Z,38.40
2022-08-04T16:43:30.477Z,38.12
2022-08-04T16:46:41.743Z,38.53
2022-08-04T16:50:03.206Z,38.19
2022-08-04T16:52:55.748Z,38.03
2022-08-04T16:55:47.621Z,37.95
2022-08-04T16:58:37.241Z,37.55
2022-08-04T17:01:47.350Z,38.03
2022-08-04T17:04:36.411Z,37.61
2022-08-04T17:07:24.908Z,36.81
2022-08-04T17:10:13.409Z,36.36
2022-08-04T17:13:20.805Z,35.93
2022-08-04T17:16:18.436Z,35.89
2022-08-04T17:19:25.251Z,35.44
2022-08-04T17:22:15.127Z,34.97
2022-08-04T17:25:04.565Z,35.14
2022-08-04T17:28:09.680Z,35.23
2022-08-04T17:31:11.913Z,34.95
2022-08-04T17:34:01.784Z,34.94
2022-08-04T17:36:52.404Z,34.85
2022-08-04T17:39:40.986Z,34.21
2022-08-04T17:42:30.639Z,34.40
2022-08-04T17:48:27.894Z,34.04
2022-08-04T17:51:17.964Z,33.82
2022-08-04T17:54:08.571Z,33.86
2022-08-04T17:56:58.234Z,34.07
2022-08-04T17:59:56.931Z,33.67
2022-08-04T18:02:54.107Z,33.42
2022-08-04T18:06:03.795Z,33.47
2022-08-04T18:08:55.566Z,33.19
2022-08-04T18:11:55.210Z,32.86
2022-08-04T18:14:45.685Z,32.40
2022-08-04T18:18:21.301Z,32.43
2022-08-04T18:20:50.162Z,32.48
2022-08-04T18:23:43.435Z,32.35
2022-08-04T18:26:39.930Z,32.20
2022-08-04T18:29:30.999Z,32.01
2022-08-04T18:32:20.776Z,31.87
2022-08-04T18:35:09.774Z,31.72
2022-08-04T18:38:11.507Z,31.47
2022-08-04T18:41:12.893Z,31.28
2022-08-04T18:44:01.789Z,31.10
2022-08-04T18:46:55.921Z,30.92
2022-08-04T18:50:58.801Z,30.67
2022-08-04T18:52:53.155Z,30.53
2022-08-04T18:55:56.552Z,30.41
2022-08-04T18:58:46.679Z,30.28
2022-08-04T19:02:13.728Z,30.12
2022-08-04T19:04:49.350Z,29.85
2022-08-04T19:08:02.184Z,29.71
2022-08-04T19:10:46.503Z,29.54
2022-08-04T19:13:42.808Z,29.37
2022-08-04T19:16:46.017Z,29.27
2022-08-04T19:19:47.631Z,29.04
2022-08-04T19:24:30.194Z,28.94
2022-08-04T19:25:59.112Z,28.87
2022-08-04T19:28:50.943Z,28.79
2022-08-04T19:31:40.128Z,28.71
2022-08-04T19:34:34.758Z,28.48
2022-08-04T19:37:56.745Z,28.36
2022-08-04T19:40:34.353Z,28.18
2022-08-04T19:43:23.238Z,28.05
2022-08-04T19:46:12.212Z,28.08
2022-08-04T19:49:01.341Z,27.98
2022-08-04T19:51:51.786Z,27.83
2022-08-04T19:54:43.144Z,27.60
2022-08-04T19:57:46.147Z,27.64
2022-08-04T20:00:34.811Z,27.61
2022-08-04T20:04:10.266Z,27.51
2022-08-04T20:06:34.007Z,27.34
2022-08-04T20:09:25.820Z,27.28
2022-08-04T20:12:15.274Z,27.16
2022-08-04T20:15:06.296Z,27.07
2022-08-04T20:18:08.111Z,27.05
2022-08-04T20:21:11.324Z,26.89
2022-08-04T20:24:38.832Z,26.87
2022-08-04T20:27:18.592Z,26.87
2022-08-04T20:30:10.905Z,26.77
2022-08-04T20:33:06.873Z,26.69
2022-08-04T20:39:04.063Z,26.56
2022-08-04T20:41:58.201Z,26.41
2022-08-04T20:44:47.286Z,26.39
2022-08-04T20:47:37.252Z,26.32
2022-08-04T20:50:30.102Z,26.25
2022-08-04T20:53:18.982Z,26.28
2022-08-04T20:56:07.653Z,26.18
2022-08-04T20:58:56.067Z,26.08
2022-08-04T21:01:45.474Z,26.05
2022-08-04T21:04:48.774Z,26.04
2022-08-04T21:07:41.689Z,26.01
2022-08-04T21:10:32.444Z,25.93
2022-08-04T21:13:21.095Z,25.89
2022-08-04T21:16:10.683Z,25.85
2022-08-04T21:19:22.598Z,25.78
2022-08-04T21:22:14.856Z,25.69
2022-08-04T21:25:18.564Z,25.67
2022-08-04T21:28:09.376Z,25.64
2022-08-04T21:30:59.587Z,25.59
2022-08-04T21:33:52.257Z,25.54
2022-08-04T21:36:43.303Z,25.46
2022-08-04T21:39:33.262Z,25.34
2022-08-04T21:42:42.495Z,25.25
2022-08-04T21:45:38.438Z,25.26
2022-08-04T21:48:27.952Z,25.20
2022-08-04T21:51:56.998Z,25.19
2022-08-04T21:54:26.508Z,25.15
2022-08-04T21:57:16.252Z,25.05
2022-08-04T22:00:06.963Z,25.04
2022-08-04T22:03:11.292Z,24.96
2022-08-04T22:06:17.490Z,24.83
2022-08-04T22:09:09.491Z,24.70
2022-08-04T22:12:03.461Z,24.63
2022-08-04T22:14:57.519Z,24.62
2022-08-04T22:17:48.230Z,24.51
2022-08-04T22:20:36.560Z,24.38
2022-08-04T22:23:25.451Z,24.37
2022-08-04T22:26:15.897Z,24.29
2022-08-04T22:29:14.236Z,24.26
2022-08-04T22:32:04.611Z,24.24
2022-08-04T22:35:03.026Z,24.17
2022-08-04T22:38:21.270Z,24.22
2022-08-04T22:41:20.208Z,24.09
2022-08-04T22:44:15.099Z,24.08
2022-08-04T22:47:05.972Z,24.05
2022-08-04T22:50:13.491Z,23.95
2022-08-04T22:53:03.113Z,23.87
2022-08-04T22:55:57.415Z,23.75
2022-08-04T22:58:56.123Z,23.78
2022-08-04T23:01:59.014Z,23.74
2022-08-04T23:04:54.055Z,23.69
2022-08-04T23:07:49.260Z,23.75
2022-08-04T23:10:43.866Z,23.57
2022-08-04T23:13:33.067Z,23.63
2022-08-04T23:16:21.386Z,23.54
2022-08-04T23:19:15.349Z,23.63
2022-08-04T23:22:05.759Z,23.58
2022-08-04T23:24:55.553Z,23.60
2022-08-04T23:27:50.564Z,23.37
2022-08-04T23:30:39.661Z,23.41
2022-08-04T23:33:50.566Z,23.20
2022-08-04T23:36:40.616Z,23.28
2022-08-04T23:40:03.871Z,23.25
2022-08-04T23:42:39.021Z,23.26
2022-08-04T23:46:04.526Z,23.24
2022-08-04T23:48:41.559Z,23.04
2022-08-04T23:51:30.140Z,23.03
2022-08-04T23:54:25.719Z,22.99
2022-08-04T23:57:17.278Z,22.96
